sensor_id;sensor_type;location;lat;lon;timestamp;temperature;humidity
40151;DHT22;25866;52.420;10.640;2024-03-17T00:02:05;4.60;99.90
40151;DHT22;25866;52.420;10.640;2024-03-17T00:04:31;4.60;99.90
40151;DHT22;25866;52.420;10.640;2024-03-17T00:06:57;4.60;99.90
40151;DHT22;25866;52.420;10.640;2024-03-17T00:09:23;4.60;99.90
40151;DHT22;25866;52.420;10.640;2024-03-17T00:11:49;4.60;99.90
40151;DHT22;25866;52.420;10.640;2024-03-17T00:14:15;4.50;99.90
40151;DHT22;25866;52.420;10.640;2024-03-17T00:16:42;4.50;99.90
40151;DHT22;25866;52.420;10.640;2024-03-17T00:19:08;4.60;99.90
40151;DHT22;25866;52.420;10.640;2024-03-17T00:21:35;4.60;99.90
40151;DHT22;25866;52.420;10.640;2024-03-17T00:24:01;4.60;99.90
40151;DHT22;25866;52.420;10.640;2024-03-17T00:26:28;4.60;99.90
40151;DHT22;25866;52.420;10.640;2024-03-17T00:28:55;4.70;99.90
40151;DHT22;25866;52.420;10.640;2024-03-17T00:31:22;4.80;99.90
40151;DHT22;25866;52.420;10.640;2024-03-17T00:33:52;4.80;99.90
40151;DHT22;25866;52.420;10.640;2024-03-17T00:36:17;4.70;99.90
40151;DHT22;25866;52.420;10.640;2024-03-17T00:38:44;4.60;99.90
40151;DHT22;25866;52.420;10.640;2024-03-17T00:41:09;4.50;99.90
40151;DHT22;25866;52.420;10.640;2024-03-17T00:43:35;4.40;99.90
40151;DHT22;25866;52.420;10.640;2024-03-17T00:46:02;4.30;99.90
40151;DHT22;25866;52.420;10.640;2024-03-17T00:48:28;4.30;99.90
40151;DHT22;25866;52.420;10.640;2024-03-17T00:50:57;4.40;99.90
40151;DHT22;25866;52.420;10.640;2024-03-17T00:53:24;4.40;99.90
40151;DHT22;25866;52.420;10.640;2024-03-17T00:55:53;4.40;99.90
40151;DHT22;25866;52.420;10.640;2024-03-17T00:58:22;4.50;99.90
40151;DHT22;25866;52.420;10.640;2024-03-17T01:00:48;4.40;99.90
40151;DHT22;25866;52.420;10.640;2024-03-17T01:03:18;4.50;99.90
40151;DHT22;25866;52.420;10.640;2024-03-17T01:05:44;4.40;99.90
40151;DHT22;25866;52.420;10.640;2024-03-17T01:08:13;4.40;99.90
40151;DHT22;25866;52.420;10.640;2024-03-17T01:10:40;4.50;99.90
40151;DHT22;25866;52.420;10.640;2024-03-17T01:13:08;4.50;99.90
40151;DHT22;25866;52.420;10.640;2024-03-17T01:15:39;4.50;99.90
40151;DHT22;25866;52.420;10.640;2024-03-17T01:18:05;4.40;99.90
40151;DHT22;25866;52.420;10.640;2024-03-17T01:20:40;4.30;99.90
40151;DHT22;25866;52.420;10.640;2024-03-17T01:23:06;4.30;99.90
40151;DHT22;25866;52.420;10.640;2024-03-17T01:25:34;4.30;99.90
40151;DHT22;25866;52.420;10.640;2024-03-17T01:28:04;4.20;99.90
40151;DHT22;25866;52.420;10.640;2024-03-17T01:30:30;4.20;99.90
40151;DHT22;25866;52.420;10.640;2024-03-17T01:32:56;4.10;99.90
40151;DHT22;25866;52.420;10.640;2024-03-17T01:35:22;4.00;99.90
40151;DHT22;25866;52.420;10.640;2024-03-17T01:37:48;4.00;99.90
40151;DHT22;25866;52.420;10.640;2024-03-17T01:40:14;3.90;99.90
40151;DHT22;25866;52.420;10.640;2024-03-17T01:42:43;3.90;99.90
40151;DHT22;25866;52.420;10.640;2024-03-17T01:47:53;3.90;99.90
40151;DHT22;25866;52.420;10.640;2024-03-17T01:50:19;3.90;99.90
40151;DHT22;25866;52.420;10.640;2024-03-17T01:52:58;4.00;99.90
40151;DHT22;25866;52.420;10.640;2024-03-17T01:55:26;3.90;99.90
40151;DHT22;25866;52.420;10.640;2024-03-17T01:57:53;4.00;99.90
40151;DHT22;25866;52.420;10.640;2024-03-17T02:00:20;4.00;99.90
40151;DHT22;25866;52.420;10.640;2024-03-17T02:02:47;4.00;99.90
40151;DHT22;25866;52.420;10.640;2024-03-17T02:05:13;4.00;99.90
40151;DHT22;25866;52.420;10.640;2024-03-17T02:07:39;4.00;99.90
40151;DHT22;25866;52.420;10.640;2024-03-17T02:10:06;4.00;99.90
40151;DHT22;25866;52.420;10.640;2024-03-17T02:12:35;4.00;99.90
40151;DHT22;25866;52.420;10.640;2024-03-17T02:15:02;4.00;99.90
40151;DHT22;25866;52.420;10.640;2024-03-17T02:17:34;4.00;99.90
40151;DHT22;25866;52.420;10.640;2024-03-17T02:20:00;3.90;99.90
40151;DHT22;25866;52.420;10.640;2024-03-17T02:22:27;3.90;99.90
40151;DHT22;25866;52.420;10.640;2024-03-17T02:24:55;3.80;99.90
40151;DHT22;25866;52.420;10.640;2024-03-17T02:27:21;3.80;99.90
40151;DHT22;25866;52.420;10.640;2024-03-17T02:29:47;3.80;99.90
40151;DHT22;25866;52.420;10.640;2024-03-17T02:32:14;3.70;99.90
40151;DHT22;25866;52.420;10.640;2024-03-17T02:34:40;3.70;99.90
40151;DHT22;25866;52.420;10.640;2024-03-17T02:37:06;3.70;99.90
40151;DHT22;25866;52.420;10.640;2024-03-17T02:39:33;3.80;99.90
40151;DHT22;25866;52.420;10.640;2024-03-17T02:42:09;3.70;99.90
40151;DHT22;25866;52.420;10.640;2024-03-17T02:44:37;3.70;99.90
40151;DHT22;25866;52.420;10.640;2024-03-17T02:47:05;3.70;99.90
40151;DHT22;25866;52.420;10.640;2024-03-17T02:49:34;3.80;99.90
40151;DHT22;25866;52.420;10.640;2024-03-17T02:52:07;3.70;99.90
40151;DHT22;25866;52.420;10.640;2024-03-17T02:54:37;3.80;99.90
40151;DHT22;25866;52.420;10.640;2024-03-17T02:57:05;3.80;99.90
40151;DHT22;25866;52.420;10.640;2024-03-17T02:59:32;3.80;99.90
40151;DHT22;25866;52.420;10.640;2024-03-17T03:02:01;3.90;99.90
40151;DHT22;25866;52.420;10.640;2024-03-17T03:04:28;3.90;99.90
40151;DHT22;25866;52.420;10.640;2024-03-17T03:06:53;3.90;99.90
40151;DHT22;25866;52.420;10.640;2024-03-17T03:09:19;3.90;99.90
40151;DHT22;25866;52.420;10.640;2024-03-17T03:12:08;3.90;99.90
40151;DHT22;25866;52.420;10.640;2024-03-17T03:14:34;4.00;99.90
40151;DHT22;25866;52.420;10.640;2024-03-17T03:17:00;4.00;99.90
40151;DHT22;25866;52.420;10.640;2024-03-17T03:19:27;3.90;99.90
40151;DHT22;25866;52.420;10.640;2024-03-17T03:21:54;4.00;99.90
40151;DHT22;25866;52.420;10.640;2024-03-17T03:24:20;3.80;99.90
40151;DHT22;25866;52.420;10.640;2024-03-17T03:26:46;3.80;99.90
40151;DHT22;25866;52.420;10.640;2024-03-17T03:29:11;3.80;99.90
40151;DHT22;25866;52.420;10.640;2024-03-17T03:31:40;3.70;99.90
40151;DHT22;25866;52.420;10.640;2024-03-17T03:34:07;3.70;99.90
40151;DHT22;25866;52.420;10.640;2024-03-17T03:36:38;3.70;99.90
40151;DHT22;25866;52.420;10.640;2024-03-17T03:39:04;3.60;99.90
40151;DHT22;25866;52.420;10.640;2024-03-17T03:41:31;3.60;99.90
40151;DHT22;25866;52.420;10.640;2024-03-17T03:44:00;3.60;99.90
40151;DHT22;25866;52.420;10.640;2024-03-17T03:46:26;3.70;99.90
40151;DHT22;25866;52.420;10.640;2024-03-17T03:48:52;3.60;99.90
40151;DHT22;25866;52.420;10.640;2024-03-17T03:51:24;3.60;99.90
40151;DHT22;25866;52.420;10.640;2024-03-17T03:53:51;3.50;99.90
40151;DHT22;25866;52.420;10.640;2024-03-17T03:56:16;3.40;99.90
40151;DHT22;25866;52.420;10.640;2024-03-17T03:58:42;3.30;99.90
40151;DHT22;25866;52.420;10.640;2024-03-17T04:01:09;3.20;99.90
40151;DHT22;25866;52.420;10.640;2024-03-17T04:03:37;3.30;99.90
40151;DHT22;25866;52.420;10.640;2024-03-17T04:06:10;3.40;99.90
40151;DHT22;25866;52.420;10.640;2024-03-17T04:08:37;3.40;99.90
40151;DHT22;25866;52.420;10.640;2024-03-17T04:11:08;3.50;99.90
40151;DHT22;25866;52.420;10.640;2024-03-17T04:13:35;3.60;99.90
40151;DHT22;25866;52.420;10.640;2024-03-17T04:16:04;3.50;99.90
40151;DHT22;25866;52.420;10.640;2024-03-17T04:18:32;3.40;99.90
40151;DHT22;25866;52.420;10.640;2024-03-17T04:21:22;3.30;99.90
40151;DHT22;25866;52.420;10.640;2024-03-17T04:23:48;3.40;99.90
40151;DHT22;25866;52.420;10.640;2024-03-17T04:26:14;3.30;99.90
40151;DHT22;25866;52.420;10.640;2024-03-17T04:28:40;3.20;99.90
40151;DHT22;25866;52.420;10.640;2024-03-17T04:31:07;3.10;99.90
40151;DHT22;25866;52.420;10.640;2024-03-17T04:33:35;3.10;99.90
40151;DHT22;25866;52.420;10.640;2024-03-17T04:36:02;3.10;99.90
40151;DHT22;25866;52.420;10.640;2024-03-17T04:38:28;3.10;99.90
40151;DHT22;25866;52.420;10.640;2024-03-17T04:40:54;3.20;99.90
40151;DHT22;25866;52.420;10.640;2024-03-17T04:43:35;3.10;99.90
40151;DHT22;25866;52.420;10.640;2024-03-17T04:46:05;3.00;99.90
40151;DHT22;25866;52.420;10.640;2024-03-17T04:48:33;3.00;99.90
40151;DHT22;25866;52.420;10.640;2024-03-17T04:51:03;3.10;99.90
40151;DHT22;25866;52.420;10.640;2024-03-17T04:53:30;3.10;99.90
40151;DHT22;25866;52.420;10.640;2024-03-17T04:56:04;3.20;99.90
40151;DHT22;25866;52.420;10.640;2024-03-17T04:58:34;3.30;99.90
40151;DHT22;25866;52.420;10.640;2024-03-17T05:01:07;3.40;99.90
40151;DHT22;25866;52.420;10.640;2024-03-17T05:03:34;3.40;99.90
40151;DHT22;25866;52.420;10.640;2024-03-17T05:06:01;3.40;99.90
40151;DHT22;25866;52.420;10.640;2024-03-17T05:08:27;3.50;99.90
40151;DHT22;25866;52.420;10.640;2024-03-17T05:11:04;3.50;99.90
40151;DHT22;25866;52.420;10.640;2024-03-17T05:13:34;3.40;99.90
40151;DHT22;25866;52.420;10.640;2024-03-17T05:16:00;3.40;99.90
40151;DHT22;25866;52.420;10.640;2024-03-17T05:18:27;3.40;99.90
40151;DHT22;25866;52.420;10.640;2024-03-17T05:21:01;3.30;99.90
40151;DHT22;25866;52.420;10.640;2024-03-17T05:23:29;3.30;99.90
40151;DHT22;25866;52.420;10.640;2024-03-17T05:25:56;3.30;99.90
40151;DHT22;25866;52.420;10.640;2024-03-17T05:28:25;3.30;99.90
40151;DHT22;25866;52.420;10.640;2024-03-17T05:30:51;3.40;99.90
40151;DHT22;25866;52.420;10.640;2024-03-17T05:33:20;3.50;99.90
40151;DHT22;25866;52.420;10.640;2024-03-17T05:35:54;3.50;99.90
40151;DHT22;25866;52.420;10.640;2024-03-17T05:38:24;3.60;99.90
40151;DHT22;25866;52.420;10.640;2024-03-17T05:41:01;3.60;99.90
40151;DHT22;25866;52.420;10.640;2024-03-17T05:43:30;3.50;99.90
40151;DHT22;25866;52.420;10.640;2024-03-17T05:46:00;3.50;99.90
40151;DHT22;25866;52.420;10.640;2024-03-17T05:48:27;3.50;99.90
40151;DHT22;25866;52.420;10.640;2024-03-17T05:50:53;3.50;99.90
40151;DHT22;25866;52.420;10.640;2024-03-17T05:53:22;3.50;99.90
40151;DHT22;25866;52.420;10.640;2024-03-17T05:55:50;3.60;99.90
40151;DHT22;25866;52.420;10.640;2024-03-17T05:58:16;3.60;99.90
40151;DHT22;25866;52.420;10.640;2024-03-17T06:00:41;3.50;99.90
40151;DHT22;25866;52.420;10.640;2024-03-17T06:03:10;3.50;99.90
40151;DHT22;25866;52.420;10.640;2024-03-17T06:05:37;3.60;99.90
40151;DHT22;25866;52.420;10.640;2024-03-17T06:08:05;3.60;99.90
40151;DHT22;25866;52.420;10.640;2024-03-17T06:10:32;3.60;99.90
40151;DHT22;25866;52.420;10.640;2024-03-17T06:13:04;3.70;99.90
40151;DHT22;25866;52.420;10.640;2024-03-17T06:15:31;3.80;99.90
40151;DHT22;25866;52.420;10.640;2024-03-17T06:17:56;3.80;99.90
40151;DHT22;25866;52.420;10.640;2024-03-17T06:20:25;3.80;99.90
40151;DHT22;25866;52.420;10.640;2024-03-17T06:23:03;3.80;99.90
40151;DHT22;25866;52.420;10.640;2024-03-17T06:25:29;3.90;99.90
40151;DHT22;25866;52.420;10.640;2024-03-17T06:27:55;3.90;99.90
40151;DHT22;25866;52.420;10.640;2024-03-17T06:30:22;3.90;99.90
40151;DHT22;25866;52.420;10.640;2024-03-17T06:32:49;3.90;99.90
40151;DHT22;25866;52.420;10.640;2024-03-17T06:35:15;4.00;99.90
40151;DHT22;25866;52.420;10.640;2024-03-17T06:37:42;4.00;99.90
40151;DHT22;25866;52.420;10.640;2024-03-17T06:40:13;4.00;99.90
40151;DHT22;25866;52.420;10.640;2024-03-17T06:42:58;4.00;99.90
40151;DHT22;25866;52.420;10.640;2024-03-17T06:45:25;4.10;99.90
40151;DHT22;25866;52.420;10.640;2024-03-17T06:48:02;4.20;99.90
40151;DHT22;25866;52.420;10.640;2024-03-17T06:50:28;4.30;99.90
40151;DHT22;25866;52.420;10.640;2024-03-17T06:53:01;4.30;99.90
40151;DHT22;25866;52.420;10.640;2024-03-17T06:55:26;4.40;99.90
40151;DHT22;25866;52.420;10.640;2024-03-17T06:57:53;4.40;99.90
40151;DHT22;25866;52.420;10.640;2024-03-17T07:00:19;4.50;99.90
40151;DHT22;25866;52.420;10.640;2024-03-17T07:02:57;4.60;99.90
40151;DHT22;25866;52.420;10.640;2024-03-17T07:05:26;4.60;99.90
40151;DHT22;25866;52.420;10.640;2024-03-17T07:07:52;4.70;99.90
40151;DHT22;25866;52.420;10.640;2024-03-17T07:10:18;4.70;99.90
40151;DHT22;25866;52.420;10.640;2024-03-17T07:12:43;4.80;99.90
40151;DHT22;25866;52.420;10.640;2024-03-17T07:15:09;4.90;99.90
40151;DHT22;25866;52.420;10.640;2024-03-17T07:17:36;5.00;99.90
40151;DHT22;25866;52.420;10.640;2024-03-17T07:20:02;5.00;99.90
40151;DHT22;25866;52.420;10.640;2024-03-17T07:22:29;5.10;99.90
40151;DHT22;25866;52.420;10.640;2024-03-17T07:24:55;5.20;99.90
40151;DHT22;25866;52.420;10.640;2024-03-17T07:27:29;5.30;99.90
40151;DHT22;25866;52.420;10.640;2024-03-17T07:29:55;5.30;99.90
40151;DHT22;25866;52.420;10.640;2024-03-17T07:32:22;5.40;99.90
40151;DHT22;25866;52.420;10.640;2024-03-17T07:34:50;5.50;99.90
40151;DHT22;25866;52.420;10.640;2024-03-17T07:37:17;5.50;99.90
40151;DHT22;25866;52.420;10.640;2024-03-17T07:39:42;5.60;99.90
40151;DHT22;25866;52.420;10.640;2024-03-17T07:42:08;5.70;99.90
40151;DHT22;25866;52.420;10.640;2024-03-17T07:44:36;5.80;99.90
40151;DHT22;25866;52.420;10.640;2024-03-17T07:47:02;6.00;99.90
40151;DHT22;25866;52.420;10.640;2024-03-17T07:49:30;6.00;99.90
40151;DHT22;25866;52.420;10.640;2024-03-17T07:51:56;6.10;99.90
40151;DHT22;25866;52.420;10.640;2024-03-17T07:54:29;6.20;99.90
40151;DHT22;25866;52.420;10.640;2024-03-17T07:56:55;6.30;99.90
40151;DHT22;25866;52.420;10.640;2024-03-17T07:59:21;6.50;99.90
40151;DHT22;25866;52.420;10.640;2024-03-17T08:01:47;6.50;99.90
40151;DHT22;25866;52.420;10.640;2024-03-17T08:04:18;6.50;99.90
40151;DHT22;25866;52.420;10.640;2024-03-17T08:06:48;6.50;99.90
40151;DHT22;25866;52.420;10.640;2024-03-17T08:09:17;6.50;99.90
40151;DHT22;25866;52.420;10.640;2024-03-17T08:11:44;6.60;99.90
40151;DHT22;25866;52.420;10.640;2024-03-17T08:14:25;6.60;99.90
40151;DHT22;25866;52.420;10.640;2024-03-17T08:16:52;6.60;99.90
40151;DHT22;25866;52.420;10.640;2024-03-17T08:19:17;6.70;99.90
40151;DHT22;25866;52.420;10.640;2024-03-17T08:21:43;6.70;99.90
40151;DHT22;25866;52.420;10.640;2024-03-17T08:24:12;6.70;99.90
40151;DHT22;25866;52.420;10.640;2024-03-17T08:26:39;6.70;99.90
40151;DHT22;25866;52.420;10.640;2024-03-17T08:29:06;6.60;99.90
40151;DHT22;25866;52.420;10.640;2024-03-17T08:31:32;6.60;99.90
40151;DHT22;25866;52.420;10.640;2024-03-17T08:33:59;6.60;99.90
40151;DHT22;25866;52.420;10.640;2024-03-17T08:36:24;6.60;99.90
40151;DHT22;25866;52.420;10.640;2024-03-17T08:38:51;6.70;99.90
40151;DHT22;25866;52.420;10.640;2024-03-17T08:41:17;6.70;99.90
40151;DHT22;25866;52.420;10.640;2024-03-17T08:43:49;6.70;99.90
40151;DHT22;25866;52.420;10.640;2024-03-17T08:46:15;6.80;99.90
40151;DHT22;25866;52.420;10.640;2024-03-17T08:48:41;6.80;99.90
40151;DHT22;25866;52.420;10.640;2024-03-17T08:51:08;6.90;99.90
40151;DHT22;25866;52.420;10.640;2024-03-17T08:53:42;6.90;99.90
40151;DHT22;25866;52.420;10.640;2024-03-17T08:56:08;7.10;99.90
40151;DHT22;25866;52.420;10.640;2024-03-17T08:58:34;7.20;99.90
40151;DHT22;25866;52.420;10.640;2024-03-17T09:01:03;7.30;99.90
40151;DHT22;25866;52.420;10.640;2024-03-17T09:03:31;7.40;99.90
40151;DHT22;25866;52.420;10.640;2024-03-17T09:05:57;7.40;99.90
40151;DHT22;25866;52.420;10.640;2024-03-17T09:08:24;7.50;99.90
40151;DHT22;25866;52.420;10.640;2024-03-17T09:10:52;7.50;99.90
40151;DHT22;25866;52.420;10.640;2024-03-17T09:13:20;7.60;99.90
40151;DHT22;25866;52.420;10.640;2024-03-17T09:16:00;7.50;99.90
40151;DHT22;25866;52.420;10.640;2024-03-17T09:18:27;7.60;99.90
40151;DHT22;25866;52.420;10.640;2024-03-17T09:21:01;7.60;99.90
40151;DHT22;25866;52.420;10.640;2024-03-17T09:23:28;7.70;99.90
40151;DHT22;25866;52.420;10.640;2024-03-17T09:25:59;7.80;99.90
40151;DHT22;25866;52.420;10.640;2024-03-17T09:28:27;7.90;99.90
40151;DHT22;25866;52.420;10.640;2024-03-17T09:30:54;8.10;99.90
40151;DHT22;25866;52.420;10.640;2024-03-17T09:33:21;8.10;99.90
40151;DHT22;25866;52.420;10.640;2024-03-17T09:35:58;8.00;99.90
40151;DHT22;25866;52.420;10.640;2024-03-17T09:38:26;8.00;99.90
40151;DHT22;25866;52.420;10.640;2024-03-17T09:40:53;8.00;99.90
40151;DHT22;25866;52.420;10.640;2024-03-17T09:43:21;8.00;99.90
40151;DHT22;25866;52.420;10.640;2024-03-17T09:45:49;8.00;99.90
40151;DHT22;25866;52.420;10.640;2024-03-17T09:48:17;7.90;99.90
40151;DHT22;25866;52.420;10.640;2024-03-17T09:50:53;7.90;99.90
40151;DHT22;25866;52.420;10.640;2024-03-17T09:53:24;8.00;99.90
40151;DHT22;25866;52.420;10.640;2024-03-17T09:56:09;8.00;99.90
40151;DHT22;25866;52.420;10.640;2024-03-17T09:58:35;8.20;99.90
40151;DHT22;25866;52.420;10.640;2024-03-17T10:01:01;8.40;99.90
40151;DHT22;25866;52.420;10.640;2024-03-17T10:03:47;8.30;99.90
40151;DHT22;25866;52.420;10.640;2024-03-17T10:06:25;8.20;99.90
40151;DHT22;25866;52.420;10.640;2024-03-17T10:08:58;8.30;99.90
40151;DHT22;25866;52.420;10.640;2024-03-17T10:11:31;8.30;99.90
40151;DHT22;25866;52.420;10.640;2024-03-17T10:14:08;8.30;99.90
40151;DHT22;25866;52.420;10.640;2024-03-17T10:16:38;8.50;99.90
40151;DHT22;25866;52.420;10.640;2024-03-17T10:19:21;8.60;99.90
40151;DHT22;25866;52.420;10.640;2024-03-17T10:21:48;8.80;99.90
40151;DHT22;25866;52.420;10.640;2024-03-17T10:24:32;8.80;99.90
40151;DHT22;25866;52.420;10.640;2024-03-17T10:27:01;8.80;99.90
40151;DHT22;25866;52.420;10.640;2024-03-17T10:29:33;8.80;99.90
40151;DHT22;25866;52.420;10.640;2024-03-17T10:32:14;8.80;99.90
40151;DHT22;25866;52.420;10.640;2024-03-17T10:34:42;8.70;99.90
40151;DHT22;25866;52.420;10.640;2024-03-17T10:37:11;8.60;99.90
40151;DHT22;25866;52.420;10.640;2024-03-17T10:39:40;8.50;99.90
40151;DHT22;25866;52.420;10.640;2024-03-17T10:42:08;8.50;99.90
40151;DHT22;25866;52.420;10.640;2024-03-17T10:44:47;8.40;99.90
40151;DHT22;25866;52.420;10.640;2024-03-17T10:47:24;8.40;99.90
40151;DHT22;25866;52.420;10.640;2024-03-17T10:49:55;8.60;99.90
40151;DHT22;25866;52.420;10.640;2024-03-17T10:52:22;8.90;99.90
40151;DHT22;25866;52.420;10.640;2024-03-17T10:54:53;9.10;99.90
40151;DHT22;25866;52.420;10.640;2024-03-17T10:57:24;9.00;99.90
40151;DHT22;25866;52.420;10.640;2024-03-17T10:59:53;9.10;99.90
40151;DHT22;25866;52.420;10.640;2024-03-17T11:02:27;9.20;99.90
40151;DHT22;25866;52.420;10.640;2024-03-17T11:05:05;9.50;99.90
40151;DHT22;25866;52.420;10.640;2024-03-17T11:07:33;9.70;99.90
40151;DHT22;25866;52.420;10.640;2024-03-17T11:10:03;9.60;99.90
40151;DHT22;25866;52.420;10.640;2024-03-17T11:20:40;9.50;99.90
40151;DHT22;25866;52.420;10.640;2024-03-17T11:23:07;9.50;99.90
40151;DHT22;25866;52.420;10.640;2024-03-17T11:25:38;9.40;99.90
40151;DHT22;25866;52.420;10.640;2024-03-17T11:28:07;9.70;99.90
40151;DHT22;25866;52.420;10.640;2024-03-17T11:30:48;9.90;99.90
40151;DHT22;25866;52.420;10.640;2024-03-17T11:39:04;9.70;99.90
40151;DHT22;25866;52.420;10.640;2024-03-17T11:41:54;9.80;99.90
40151;DHT22;25866;52.420;10.640;2024-03-17T11:47:00;10.50;99.90
40151;DHT22;25866;52.420;10.640;2024-03-17T11:49:28;10.70;99.90
40151;DHT22;25866;52.420;10.640;2024-03-17T11:52:00;10.80;99.90
40151;DHT22;25866;52.420;10.640;2024-03-17T11:54:28;11.00;99.90
40151;DHT22;25866;52.420;10.640;2024-03-17T11:57:21;11.10;99.90
40151;DHT22;25866;52.420;10.640;2024-03-17T11:59:50;11.20;99.90
40151;DHT22;25866;52.420;10.640;2024-03-17T12:02:22;11.30;99.90
40151;DHT22;25866;52.420;10.640;2024-03-17T12:04:49;11.40;99.90
40151;DHT22;25866;52.420;10.640;2024-03-17T12:07:19;11.40;99.90
40151;DHT22;25866;52.420;10.640;2024-03-17T12:09:47;11.60;99.90
40151;DHT22;25866;52.420;10.640;2024-03-17T12:12:22;11.60;99.90
40151;DHT22;25866;52.420;10.640;2024-03-17T12:14:49;11.70;99.90
40151;DHT22;25866;52.420;10.640;2024-03-17T12:17:21;11.70;99.90
40151;DHT22;25866;52.420;10.640;2024-03-17T12:19:47;11.70;99.90
40151;DHT22;25866;52.420;10.640;2024-03-17T12:22:21;11.80;99.90
40151;DHT22;25866;52.420;10.640;2024-03-17T12:24:52;11.60;99.90
40151;DHT22;25866;52.420;10.640;2024-03-17T12:27:30;11.60;99.90
40151;DHT22;25866;52.420;10.640;2024-03-17T12:29:56;11.70;99.90
40151;DHT22;25866;52.420;10.640;2024-03-17T12:32:23;11.90;99.90
40151;DHT22;25866;52.420;10.640;2024-03-17T12:34:53;12.00;99.90
40151;DHT22;25866;52.420;10.640;2024-03-17T12:37:22;12.10;99.90
40151;DHT22;25866;52.420;10.640;2024-03-17T12:39:49;12.30;99.90
40151;DHT22;25866;52.420;10.640;2024-03-17T12:42:16;12.30;99.90
40151;DHT22;25866;52.420;10.640;2024-03-17T12:47:34;12.20;99.90
40151;DHT22;25866;52.420;10.640;2024-03-17T12:50:01;12.30;99.90
40151;DHT22;25866;52.420;10.640;2024-03-17T12:52:29;12.30;99.90
40151;DHT22;25866;52.420;10.640;2024-03-17T12:54:59;12.40;99.90
40151;DHT22;25866;52.420;10.640;2024-03-17T13:01:08;12.40;99.90
40151;DHT22;25866;52.420;10.640;2024-03-17T13:03:34;12.50;99.90
40151;DHT22;25866;52.420;10.640;2024-03-17T13:06:04;12.40;99.90
40151;DHT22;25866;52.420;10.640;2024-03-17T13:08:34;12.20;99.90
40151;DHT22;25866;52.420;10.640;2024-03-17T13:11:00;12.30;99.90
40151;DHT22;25866;52.420;10.640;2024-03-17T13:13:26;12.40;99.90
40151;DHT22;25866;52.420;10.640;2024-03-17T13:15:52;12.40;99.70
40151;DHT22;25866;52.420;10.640;2024-03-17T13:18:20;12.60;99.90
40151;DHT22;25866;52.420;10.640;2024-03-17T13:20:46;12.40;97.50
40151;DHT22;25866;52.420;10.640;2024-03-17T13:23:12;12.30;99.90
40151;DHT22;25866;52.420;10.640;2024-03-17T13:25:39;12.30;99.90
40151;DHT22;25866;52.420;10.640;2024-03-17T13:28:15;12.30;99.90
40151;DHT22;25866;52.420;10.640;2024-03-17T13:30:41;12.40;99.90
40151;DHT22;25866;52.420;10.640;2024-03-17T13:33:08;12.50;99.90
40151;DHT22;25866;52.420;10.640;2024-03-17T13:35:35;12.60;99.70
40151;DHT22;25866;52.420;10.640;2024-03-17T13:38:09;12.60;99.70
40151;DHT22;25866;52.420;10.640;2024-03-17T13:40:36;12.60;99.90
40151;DHT22;25866;52.420;10.640;2024-03-17T13:43:03;12.70;99.90
40151;DHT22;25866;52.420;10.640;2024-03-17T13:45:37;12.70;99.00
40151;DHT22;25866;52.420;10.640;2024-03-17T13:48:05;12.60;99.30
40151;DHT22;25866;52.420;10.640;2024-03-17T13:50:31;12.60;99.90
40151;DHT22;25866;52.420;10.640;2024-03-17T13:52:57;12.70;99.90
40151;DHT22;25866;52.420;10.640;2024-03-17T13:55:24;12.80;99.90
40151;DHT22;25866;52.420;10.640;2024-03-17T13:57:58;12.80;99.90
40151;DHT22;25866;52.420;10.640;2024-03-17T14:00:29;12.90;99.70
40151;DHT22;25866;52.420;10.640;2024-03-17T14:03:01;12.90;98.90
40151;DHT22;25866;52.420;10.640;2024-03-17T14:05:27;12.80;99.80
40151;DHT22;25866;52.420;10.640;2024-03-17T14:07:55;12.80;99.90
40151;DHT22;25866;52.420;10.640;2024-03-17T14:10:23;12.90;98.10
40151;DHT22;25866;52.420;10.640;2024-03-17T14:12:49;12.90;98.30
40151;DHT22;25866;52.420;10.640;2024-03-17T14:15:15;12.70;97.50
40151;DHT22;25866;52.420;10.640;2024-03-17T14:17:44;12.50;98.50
40151;DHT22;25866;52.420;10.640;2024-03-17T14:20:10;12.60;99.80
40151;DHT22;25866;52.420;10.640;2024-03-17T14:22:37;12.60;98.50
40151;DHT22;25866;52.420;10.640;2024-03-17T14:25:07;12.60;97.20
40151;DHT22;25866;52.420;10.640;2024-03-17T14:27:36;12.40;97.20
40151;DHT22;25866;52.420;10.640;2024-03-17T14:30:02;12.40;98.20
40151;DHT22;25866;52.420;10.640;2024-03-17T14:32:30;12.40;98.90
40151;DHT22;25866;52.420;10.640;2024-03-17T14:34:56;12.30;97.20
40151;DHT22;25866;52.420;10.640;2024-03-17T14:37:22;12.40;97.90
40151;DHT22;25866;52.420;10.640;2024-03-17T14:39:52;12.50;99.20
40151;DHT22;25866;52.420;10.640;2024-03-17T14:42:20;12.60;99.20
40151;DHT22;25866;52.420;10.640;2024-03-17T14:44:46;12.70;99.50
40151;DHT22;25866;52.420;10.640;2024-03-17T14:47:21;12.40;99.90
40151;DHT22;25866;52.420;10.640;2024-03-17T14:49:49;12.20;99.90
40151;DHT22;25866;52.420;10.640;2024-03-17T14:52:16;12.00;99.90
40151;DHT22;25866;52.420;10.640;2024-03-17T14:54:42;11.90;97.80
40151;DHT22;25866;52.420;10.640;2024-03-17T14:57:08;11.80;96.80
40151;DHT22;25866;52.420;10.640;2024-03-17T14:59:34;11.70;99.80
40151;DHT22;25866;52.420;10.640;2024-03-17T15:02:00;11.60;99.50
40151;DHT22;25866;52.420;10.640;2024-03-17T15:04:26;11.50;99.90
40151;DHT22;25866;52.420;10.640;2024-03-17T15:06:52;11.40;99.90
40151;DHT22;25866;52.420;10.640;2024-03-17T15:09:25;11.30;99.90
40151;DHT22;25866;52.420;10.640;2024-03-17T15:11:51;11.10;99.90
40151;DHT22;25866;52.420;10.640;2024-03-17T15:14:17;11.00;99.90
40151;DHT22;25866;52.420;10.640;2024-03-17T15:16:43;11.00;99.90
40151;DHT22;25866;52.420;10.640;2024-03-17T15:19:17;10.90;99.90
40151;DHT22;25866;52.420;10.640;2024-03-17T15:21:43;10.90;99.60
40151;DHT22;25866;52.420;10.640;2024-03-17T15:24:09;10.80;99.90
40151;DHT22;25866;52.420;10.640;2024-03-17T15:26:34;10.80;99.20
40151;DHT22;25866;52.420;10.640;2024-03-17T15:29:01;10.70;99.70
40151;DHT22;25866;52.420;10.640;2024-03-17T15:31:32;10.70;99.40
40151;DHT22;25866;52.420;10.640;2024-03-17T15:33:58;10.60;99.90
40151;DHT22;25866;52.420;10.640;2024-03-17T15:36:24;10.60;99.70
40151;DHT22;25866;52.420;10.640;2024-03-17T15:38:53;10.60;99.90
40151;DHT22;25866;52.420;10.640;2024-03-17T15:41:19;10.50;99.90
40151;DHT22;25866;52.420;10.640;2024-03-17T15:43:45;10.50;99.90
40151;DHT22;25866;52.420;10.640;2024-03-17T15:46:16;10.50;99.90
40151;DHT22;25866;52.420;10.640;2024-03-17T15:49:02;10.50;99.90
40151;DHT22;25866;52.420;10.640;2024-03-17T15:51:29;10.50;99.90
40151;DHT22;25866;52.420;10.640;2024-03-17T15:53:54;10.50;99.90
40151;DHT22;25866;52.420;10.640;2024-03-17T15:56:20;10.50;99.90
40151;DHT22;25866;52.420;10.640;2024-03-17T15:58:49;10.50;98.80
40151;DHT22;25866;52.420;10.640;2024-03-17T16:01:15;10.40;99.90
40151;DHT22;25866;52.420;10.640;2024-03-17T16:03:43;10.40;99.30